sensor_id;sensor_type;location;lat;lon;timestamp;P1;durP1;ratioP1;P2;durP2;ratioP2
44646;SDS011;56315;-33.902;151.160;2023-03-31T00:00:45;3.40;;;1.15;;
44646;SDS011;56315;-33.902;151.160;2023-03-31T00:03:16;2.65;;;0.70;;
44646;SDS011;56315;-33.902;151.160;2023-03-31T00:05:48;2.03;;;1.10;;
44646;SDS011;56315;-33.902;151.160;2023-03-31T00:08:26;2.58;;;0.75;;
44646;SDS011;56315;-33.902;151.160;2023-03-31T00:11:00;4.97;;;0.75;;
44646;SDS011;56315;-33.902;151.160;2023-03-31T00:13:31;1.92;;;0.68;;
44646;SDS011;56315;-33.902;151.160;2023-03-31T00:16:05;4.82;;;1.05;;
44646;SDS011;56315;-33.902;151.160;2023-03-31T00:18:35;3.50;;;0.60;;
44646;SDS011;56315;-33.902;151.160;2023-03-31T00:21:09;3.17;;;0.77;;
44646;SDS011;56315;-33.902;151.160;2023-03-31T00:23:49;2.97;;;0.70;;
44646;SDS011;56315;-33.902;151.160;2023-03-31T00:26:24;1.52;;;0.40;;
44646;SDS011;56315;-33.902;151.160;2023-03-31T00:28:52;2.42;;;0.47;;
44646;SDS011;56315;-33.902;151.160;2023-03-31T00:31:20;1.42;;;0.63;;
44646;SDS011;56315;-33.902;151.160;2023-03-31T00:33:48;6.93;;;0.60;;
44646;SDS011;56315;-33.902;151.160;2023-03-31T00:36:15;2.00;;;0.47;;
44646;SDS011;56315;-33.902;151.160;2023-03-31T00:38:48;0.77;;;0.50;;
44646;SDS011;56315;-33.902;151.160;2023-03-31T00:41:16;18.13;;;1.85;;
44646;SDS011;56315;-33.902;151.160;2023-03-31T00:46:55;2.42;;;0.63;;
44646;SDS011;56315;-33.902;151.160;2023-03-31T00:49:37;1.40;;;0.52;;
44646;SDS011;56315;-33.902;151.160;2023-03-31T00:54:38;1.00;;;0.40;;
44646;SDS011;56315;-33.902;151.160;2023-03-31T00:57:08;2.45;;;0.40;;
44646;SDS011;56315;-33.902;151.160;2023-03-31T00:59:40;1.25;;;0.55;;
44646;SDS011;56315;-33.902;151.160;2023-03-31T01:02:12;1.42;;;0.50;;
44646;SDS011;56315;-33.902;151.160;2023-03-31T01:04:41;2.75;;;0.70;;
44646;SDS011;56315;-33.902;151.160;2023-03-31T01:10:13;2.22;;;1.42;;
44646;SDS011;56315;-33.902;151.160;2023-03-31T01:12:42;3.50;;;0.45;;
44646;SDS011;56315;-33.902;151.160;2023-03-31T01:15:15;2.83;;;0.30;;
44646;SDS011;56315;-33.902;151.160;2023-03-31T01:17:42;1.15;;;0.30;;
44646;SDS011;56315;-33.902;151.160;2023-03-31T01:36:27;0.93;;;0.30;;
44646;SDS011;56315;-33.902;151.160;2023-03-31T01:39:21;1.27;;;0.45;;
44646;SDS011;56315;-33.902;151.160;2023-03-31T01:44:39;0.60;;;0.32;;
44646;SDS011;56315;-33.902;151.160;2023-03-31T01:47:14;1.42;;;0.30;;
44646;SDS011;56315;-33.902;151.160;2023-03-31T01:55:07;1.58;;;0.45;;
44646;SDS011;56315;-33.902;151.160;2023-03-31T02:00:18;1.45;;;0.40;;
44646;SDS011;56315;-33.902;151.160;2023-03-31T02:02:58;0.73;;;0.20;;
44646;SDS011;56315;-33.902;151.160;2023-03-31T02:05:52;0.93;;;0.57;;
44646;SDS011;56315;-33.902;151.160;2023-03-31T02:08:30;0.73;;;0.35;;
44646;SDS011;56315;-33.902;151.160;2023-03-31T02:11:09;1.17;;;0.45;;
44646;SDS011;56315;-33.902;151.160;2023-03-31T02:13:37;1.02;;;0.40;;
44646;SDS011;56315;-33.902;151.160;2023-03-31T02:16:10;0.77;;;0.40;;
44646;SDS011;56315;-33.902;151.160;2023-03-31T02:18:43;1.02;;;0.28;;
44646;SDS011;56315;-33.902;151.160;2023-03-31T02:21:14;0.70;;;0.30;;
44646;SDS011;56315;-33.902;151.160;2023-03-31T02:23:42;1.08;;;0.30;;
44646;SDS011;56315;-33.902;151.160;2023-03-31T02:28:43;2.30;;;0.30;;
44646;SDS011;56315;-33.902;151.160;2023-03-31T02:34:31;0.52;;;0.35;;
44646;SDS011;56315;-33.902;151.160;2023-03-31T02:36:59;0.95;;;0.43;;
44646;SDS011;56315;-33.902;151.160;2023-03-31T02:39:29;0.82;;;0.40;;
44646;SDS011;56315;-33.902;151.160;2023-03-31T02:42:01;1.30;;;0.40;;
44646;SDS011;56315;-33.902;151.160;2023-03-31T02:44:38;1.27;;;0.32;;
44646;SDS011;56315;-33.902;151.160;2023-03-31T02:49:37;0.60;;;0.35;;
44646;SDS011;56315;-33.902;151.160;2023-03-31T02:52:10;1.50;;;0.50;;
44646;SDS011;56315;-33.902;151.160;2023-03-31T03:00:15;0.95;;;0.38;;
44646;SDS011;56315;-33.902;151.160;2023-03-31T03:03:15;2.67;;;0.60;;
44646;SDS011;56315;-33.902;151.160;2023-03-31T03:11:00;0.93;;;0.47;;
44646;SDS011;56315;-33.902;151.160;2023-03-31T03:13:51;2.47;;;0.70;;
44646;SDS011;56315;-33.902;151.160;2023-03-31T03:16:34;3.72;;;0.40;;
44646;SDS011;56315;-33.902;151.160;2023-03-31T03:19:08;1.60;;;0.35;;
44646;SDS011;56315;-33.902;151.160;2023-03-31T03:21:35;2.20;;;0.65;;
44646;SDS011;56315;-33.902;151.160;2023-03-31T03:24:03;3.88;;;0.50;;
44646;SDS011;56315;-33.902;151.160;2023-03-31T03:26:30;6.05;;;0.75;;
44646;SDS011;56315;-33.902;151.160;2023-03-31T03:28:59;1.02;;;0.60;;
44646;SDS011;56315;-33.902;151.160;2023-03-31T03:31:27;3.60;;;0.80;;
44646;SDS011;56315;-33.902;151.160;2023-03-31T03:33:55;5.05;;;0.60;;
44646;SDS011;56315;-33.902;151.160;2023-03-31T03:36:22;2.13;;;0.82;;
44646;SDS011;56315;-33.902;151.160;2023-03-31T03:38:49;1.48;;;0.52;;
44646;SDS011;56315;-33.902;151.160;2023-03-31T03:41:16;3.30;;;0.57;;
44646;SDS011;56315;-33.902;151.160;2023-03-31T03:43:44;1.35;;;0.60;;
44646;SDS011;56315;-33.902;151.160;2023-03-31T03:46:11;2.40;;;0.55;;
44646;SDS011;56315;-33.902;151.160;2023-03-31T03:48:38;2.58;;;0.50;;
44646;SDS011;56315;-33.902;151.160;2023-03-31T03:51:05;4.47;;;1.10;;
44646;SDS011;56315;-33.902;151.160;2023-03-31T03:53:33;1.33;;;0.50;;
44646;SDS011;56315;-33.902;151.160;2023-03-31T03:56:00;0.88;;;0.45;;
44646;SDS011;56315;-33.902;151.160;2023-03-31T03:58:27;3.65;;;0.80;;
44646;SDS011;56315;-33.902;151.160;2023-03-31T04:00:54;2.15;;;0.60;;
44646;SDS011;56315;-33.902;151.160;2023-03-31T04:03:22;0.95;;;0.47;;
44646;SDS011;56315;-33.902;151.160;2023-03-31T04:05:49;1.08;;;0.50;;
44646;SDS011;56315;-33.902;151.160;2023-03-31T04:08:17;1.83;;;0.52;;
44646;SDS011;56315;-33.902;151.160;2023-03-31T04:10:45;2.47;;;0.57;;
44646;SDS011;56315;-33.902;151.160;2023-03-31T04:13:14;2.25;;;0.60;;
44646;SDS011;56315;-33.902;151.160;2023-03-31T04:15:42;1.98;;;0.77;;
44646;SDS011;56315;-33.902;151.160;2023-03-31T04:18:11;2.13;;;0.57;;
44646;SDS011;56315;-33.902;151.160;2023-03-31T04:20:51;2.47;;;0.50;;
44646;SDS011;56315;-33.902;151.160;2023-03-31T04:23:34;2.55;;;0.50;;
44646;SDS011;56315;-33.902;151.160;2023-03-31T04:26:03;1.20;;;0.45;;
44646;SDS011;56315;-33.902;151.160;2023-03-31T04:28:34;1.98;;;0.43;;
44646;SDS011;56315;-33.902;151.160;2023-03-31T04:31:02;2.28;;;0.30;;
44646;SDS011;56315;-33.902;151.160;2023-03-31T04:33:34;1.70;;;0.52;;
44646;SDS011;56315;-33.902;151.160;2023-03-31T04:36:04;1.83;;;0.50;;
44646;SDS011;56315;-33.902;151.160;2023-03-31T04:38:45;4.07;;;1.08;;
44646;SDS011;56315;-33.902;151.160;2023-03-31T04:41:16;4.50;;;0.50;;
44646;SDS011;56315;-33.902;151.160;2023-03-31T04:43:43;4.38;;;0.88;;
44646;SDS011;56315;-33.902;151.160;2023-03-31T04:46:11;1.88;;;0.70;;
44646;SDS011;56315;-33.902;151.160;2023-03-31T04:48:38;1.05;;;0.35;;
44646;SDS011;56315;-33.902;151.160;2023-03-31T04:51:06;2.47;;;0.70;;
44646;SDS011;56315;-33.902;151.160;2023-03-31T04:53:33;1.08;;;0.35;;
44646;SDS011;56315;-33.902;151.160;2023-03-31T04:56:01;0.73;;;0.40;;
44646;SDS011;56315;-33.902;151.160;2023-03-31T04:58:28;0.55;;;0.40;;
44646;SDS011;56315;-33.902;151.160;2023-03-31T05:00:55;1.80;;;0.40;;
44646;SDS011;56315;-33.902;151.160;2023-03-31T05:03:23;1.40;;;0.30;;
44646;SDS011;56315;-33.902;151.160;2023-03-31T05:05:50;1.30;;;0.35;;
44646;SDS011;56315;-33.902;151.160;2023-03-31T05:08:18;0.75;;;0.20;;
44646;SDS011;56315;-33.902;151.160;2023-03-31T05:10:45;2.45;;;0.40;;
44646;SDS011;56315;-33.902;151.160;2023-03-31T05:13:12;0.40;;;0.30;;
44646;SDS011;56315;-33.902;151.160;2023-03-31T05:15:40;1.30;;;0.40;;
44646;SDS011;56315;-33.902;151.160;2023-03-31T05:18:09;0.52;;;0.30;;
44646;SDS011;56315;-33.902;151.160;2023-03-31T05:20:36;2.45;;;0.30;;
44646;SDS011;56315;-33.902;151.160;2023-03-31T05:23:04;1.95;;;0.50;;
44646;SDS011;56315;-33.902;151.160;2023-03-31T05:25:31;4.25;;;0.30;;
44646;SDS011;56315;-33.902;151.160;2023-03-31T05:27:58;3.55;;;0.50;;
44646;SDS011;56315;-33.902;151.160;2023-03-31T05:30:26;0.95;;;0.32;;
44646;SDS011;56315;-33.902;151.160;2023-03-31T05:32:54;1.73;;;0.50;;
44646;SDS011;56315;-33.902;151.160;2023-03-31T05:35:22;1.17;;;0.50;;
44646;SDS011;56315;-33.902;151.160;2023-03-31T05:37:49;2.30;;;0.75;;
44646;SDS011;56315;-33.902;151.160;2023-03-31T05:40:16;1.50;;;0.30;;
44646;SDS011;56315;-33.902;151.160;2023-03-31T05:42:43;1.48;;;0.43;;
44646;SDS011;56315;-33.902;151.160;2023-03-31T05:45:11;1.23;;;0.40;;
44646;SDS011;56315;-33.902;151.160;2023-03-31T05:47:38;3.45;;;0.50;;
44646;SDS011;56315;-33.902;151.160;2023-03-31T05:50:06;0.52;;;0.30;;
44646;SDS011;56315;-33.902;151.160;2023-03-31T05:52:34;1.75;;;0.45;;
44646;SDS011;56315;-33.902;151.160;2023-03-31T05:55:02;0.73;;;0.30;;
44646;SDS011;56315;-33.902;151.160;2023-03-31T05:57:29;1.38;;;0.30;;
44646;SDS011;56315;-33.902;151.160;2023-03-31T05:59:56;0.70;;;0.30;;
44646;SDS011;56315;-33.902;151.160;2023-03-31T06:02:24;1.02;;;0.45;;
44646;SDS011;56315;-33.902;151.160;2023-03-31T06:04:51;2.65;;;0.63;;
44646;SDS011;56315;-33.902;151.160;2023-03-31T06:07:18;2.20;;;0.50;;
44646;SDS011;56315;-33.902;151.160;2023-03-31T06:09:46;1.30;;;0.57;;
44646;SDS011;56315;-33.902;151.160;2023-03-31T06:12:14;4.22;;;0.70;;
44646;SDS011;56315;-33.902;151.160;2023-03-31T06:14:41;3.63;;;0.70;;
44646;SDS011;56315;-33.902;151.160;2023-03-31T06:17:08;4.57;;;0.80;;
44646;SDS011;56315;-33.902;151.160;2023-03-31T06:19:35;2.35;;;1.08;;
44646;SDS011;56315;-33.902;151.160;2023-03-31T06:22:02;1.15;;;0.50;;
44646;SDS011;56315;-33.902;151.160;2023-03-31T06:24:30;1.05;;;0.50;;
44646;SDS011;56315;-33.902;151.160;2023-03-31T06:26:57;2.20;;;0.38;;
44646;SDS011;56315;-33.902;151.160;2023-03-31T06:29:26;0.80;;;0.40;;
44646;SDS011;56315;-33.902;151.160;2023-03-31T06:31:53;2.33;;;0.40;;
44646;SDS011;56315;-33.902;151.160;2023-03-31T06:34:21;1.35;;;0.50;;
44646;SDS011;56315;-33.902;151.160;2023-03-31T06:36:48;0.93;;;0.50;;
44646;SDS011;56315;-33.902;151.160;2023-03-31T06:39:15;0.90;;;0.45;;
44646;SDS011;56315;-33.902;151.160;2023-03-31T06:41:42;3.25;;;0.30;;
44646;SDS011;56315;-33.902;151.160;2023-03-31T06:44:10;2.75;;;0.40;;
44646;SDS011;56315;-33.902;151.160;2023-03-31T06:46:41;1.35;;;0.43;;
44646;SDS011;56315;-33.902;151.160;2023-03-31T06:49:08;2.33;;;0.50;;
44646;SDS011;56315;-33.902;151.160;2023-03-31T06:51:35;1.08;;;0.40;;
44646;SDS011;56315;-33.902;151.160;2023-03-31T06:54:03;1.42;;;0.50;;
44646;SDS011;56315;-33.902;151.160;2023-03-31T06:56:30;0.75;;;0.50;;
44646;SDS011;56315;-33.902;151.160;2023-03-31T06:58:58;2.17;;;0.60;;
44646;SDS011;56315;-33.902;151.160;2023-03-31T07:01:25;3.15;;;0.77;;
44646;SDS011;56315;-33.902;151.160;2023-03-31T07:03:52;1.95;;;0.82;;
44646;SDS011;56315;-33.902;151.160;2023-03-31T07:06:19;2.47;;;1.10;;
44646;SDS011;56315;-33.902;151.160;2023-03-31T07:08:46;2.05;;;0.93;;
44646;SDS011;56315;-33.902;151.160;2023-03-31T07:11:13;7.47;;;1.02;;
44646;SDS011;56315;-33.902;151.160;2023-03-31T07:13:41;2.22;;;0.60;;
44646;SDS011;56315;-33.902;151.160;2023-03-31T07:16:08;2.65;;;0.50;;
44646;SDS011;56315;-33.902;151.160;2023-03-31T07:18:38;0.68;;;0.43;;
44646;SDS011;56315;-33.902;151.160;2023-03-31T07:21:06;2.78;;;0.70;;
44646;SDS011;56315;-33.902;151.160;2023-03-31T07:23:34;3.65;;;0.70;;
44646;SDS011;56315;-33.902;151.160;2023-03-31T07:26:01;2.65;;;0.70;;
44646;SDS011;56315;-33.902;151.160;2023-03-31T07:28:29;1.52;;;0.80;;
44646;SDS011;56315;-33.902;151.160;2023-03-31T07:30:56;1.85;;;0.73;;
44646;SDS011;56315;-33.902;151.160;2023-03-31T07:33:23;3.25;;;0.90;;
44646;SDS011;56315;-33.902;151.160;2023-03-31T07:35:51;1.70;;;0.60;;
44646;SDS011;56315;-33.902;151.160;2023-03-31T07:38:18;2.25;;;0.80;;
44646;SDS011;56315;-33.902;151.160;2023-03-31T07:40:45;3.58;;;1.00;;
44646;SDS011;56315;-33.902;151.160;2023-03-31T07:43:12;2.72;;;0.80;;
44646;SDS011;56315;-33.902;151.160;2023-03-31T07:45:40;2.85;;;0.93;;
44646;SDS011;56315;-33.902;151.160;2023-03-31T07:48:07;2.88;;;0.75;;
44646;SDS011;56315;-33.902;151.160;2023-03-31T07:50:34;2.40;;;0.90;;
44646;SDS011;56315;-33.902;151.160;2023-03-31T07:53:01;1.55;;;0.90;;
44646;SDS011;56315;-33.902;151.160;2023-03-31T07:55:29;1.20;;;0.98;;
44646;SDS011;56315;-33.902;151.160;2023-03-31T07:57:56;3.28;;;1.20;;
44646;SDS011;56315;-33.902;151.160;2023-03-31T08:00:23;4.00;;;1.15;;
44646;SDS011;56315;-33.902;151.160;2023-03-31T08:02:50;2.60;;;0.90;;
44646;SDS011;56315;-33.902;151.160;2023-03-31T08:05:18;2.75;;;1.00;;
44646;SDS011;56315;-33.902;151.160;2023-03-31T08:07:46;2.22;;;0.90;;
44646;SDS011;56315;-33.902;151.160;2023-03-31T08:10:16;1.50;;;1.00;;
44646;SDS011;56315;-33.902;151.160;2023-03-31T08:12:48;1.55;;;0.52;;
44646;SDS011;56315;-33.902;151.160;2023-03-31T08:15:15;1.27;;;0.60;;
44646;SDS011;56315;-33.902;151.160;2023-03-31T08:17:43;1.25;;;0.70;;
44646;SDS011;56315;-33.902;151.160;2023-03-31T08:20:10;1.65;;;1.00;;
44646;SDS011;56315;-33.902;151.160;2023-03-31T08:22:38;1.27;;;0.63;;
44646;SDS011;56315;-33.902;151.160;2023-03-31T08:25:06;1.05;;;0.68;;
44646;SDS011;56315;-33.902;151.160;2023-03-31T08:27:34;2.20;;;1.10;;
44646;SDS011;56315;-33.902;151.160;2023-03-31T08:30:04;2.22;;;1.00;;
44646;SDS011;56315;-33.902;151.160;2023-03-31T08:32:33;2.20;;;1.23;;
44646;SDS011;56315;-33.902;151.160;2023-03-31T08:35:01;2.15;;;0.70;;
44646;SDS011;56315;-33.902;151.160;2023-03-31T08:37:28;1.67;;;0.90;;
44646;SDS011;56315;-33.902;151.160;2023-03-31T08:39:56;3.67;;;0.82;;
44646;SDS011;56315;-33.902;151.160;2023-03-31T08:45:25;4.35;;;0.80;;
44646;SDS011;56315;-33.902;151.160;2023-03-31T08:48:17;0.68;;;0.50;;
44646;SDS011;56315;-33.902;151.160;2023-03-31T08:50:53;1.10;;;0.70;;
44646;SDS011;56315;-33.902;151.160;2023-03-31T08:53:26;1.17;;;0.70;;
44646;SDS011;56315;-33.902;151.160;2023-03-31T08:55:57;1.65;;;0.70;;
44646;SDS011;56315;-33.902;151.160;2023-03-31T08:58:45;1.58;;;0.93;;
44646;SDS011;56315;-33.902;151.160;2023-03-31T09:12:32;5.50;;;1.42;;
44646;SDS011;56315;-33.902;151.160;2023-03-31T09:15:07;2.63;;;1.30;;
44646;SDS011;56315;-33.902;151.160;2023-03-31T09:17:39;1.60;;;1.17;;
44646;SDS011;56315;-33.902;151.160;2023-03-31T09:20:30;3.03;;;1.52;;
44646;SDS011;56315;-33.902;151.160;2023-03-31T09:25:40;3.65;;;1.83;;
44646;SDS011;56315;-33.902;151.160;2023-03-31T09:28:22;3.33;;;1.60;;
44646;SDS011;56315;-33.902;151.160;2023-03-31T09:30:59;5.00;;;1.77;;
44646;SDS011;56315;-33.902;151.160;2023-03-31T09:33:45;4.55;;;2.15;;
44646;SDS011;56315;-33.902;151.160;2023-03-31T09:36:16;2.80;;;1.95;;
44646;SDS011;56315;-33.902;151.160;2023-03-31T09:38:49;4.35;;;1.95;;
44646;SDS011;56315;-33.902;151.160;2023-03-31T09:41:16;2.80;;;1.70;;
44646;SDS011;56315;-33.902;151.160;2023-03-31T09:43:45;2.97;;;1.83;;
44646;SDS011;56315;-33.902;151.160;2023-03-31T09:49:11;5.13;;;2.25;;
44646;SDS011;56315;-33.902;151.160;2023-03-31T09:51:44;2.78;;;1.88;;
44646;SDS011;56315;-33.902;151.160;2023-03-31T09:54:24;3.85;;;2.05;;
44646;SDS011;56315;-33.902;151.160;2023-03-31T09:57:00;3.53;;;2.10;;
44646;SDS011;56315;-33.902;151.160;2023-03-31T09:59:33;3.60;;;1.75;;
44646;SDS011;56315;-33.902;151.160;2023-03-31T10:02:02;3.75;;;2.28;;
44646;SDS011;56315;-33.902;151.160;2023-03-31T10:04:45;3.63;;;1.75;;
44646;SDS011;56315;-33.902;151.160;2023-03-31T10:07:12;3.13;;;1.58;;
44646;SDS011;56315;-33.902;151.160;2023-03-31T10:09:45;2.80;;;2.10;;
44646;SDS011;56315;-33.902;151.160;2023-03-31T10:12:16;2.50;;;1.77;;
44646;SDS011;56315;-33.902;151.160;2023-03-31T10:14:49;2.75;;;1.90;;
44646;SDS011;56315;-33.902;151.160;2023-03-31T10:17:19;3.58;;;1.92;;
44646;SDS011;56315;-33.902;151.160;2023-03-31T10:20:04;2.53;;;1.45;;
44646;SDS011;56315;-33.902;151.160;2023-03-31T10:22:44;3.05;;;1.95;;
44646;SDS011;56315;-33.902;151.160;2023-03-31T10:25:21;2.92;;;1.67;;
44646;SDS011;56315;-33.902;151.160;2023-03-31T10:27:54;5.63;;;1.58;;
44646;SDS011;56315;-33.902;151.160;2023-03-31T10:30:24;2.83;;;1.60;;
44646;SDS011;56315;-33.902;151.160;2023-03-31T10:32:55;3.55;;;1.60;;
44646;SDS011;56315;-33.902;151.160;2023-03-31T10:35:29;3.17;;;1.33;;
44646;SDS011;56315;-33.902;151.160;2023-03-31T10:38:01;2.63;;;1.60;;
44646;SDS011;56315;-33.902;151.160;2023-03-31T10:40:31;2.80;;;1.70;;
44646;SDS011;56315;-33.902;151.160;2023-03-31T10:45:46;2.00;;;1.25;;
44646;SDS011;56315;-33.902;151.160;2023-03-31T10:48:25;3.13;;;1.35;;
44646;SDS011;56315;-33.902;151.160;2023-03-31T10:50:58;3.20;;;1.25;;
44646;SDS011;56315;-33.902;151.160;2023-03-31T10:53:31;3.78;;;1.15;;
44646;SDS011;56315;-33.902;151.160;2023-03-31T10:58:56;2.38;;;1.25;;
44646;SDS011;56315;-33.902;151.160;2023-03-31T11:01:38;4.53;;;1.60;;
44646;SDS011;56315;-33.902;151.160;2023-03-31T11:09:33;3.00;;;1.85;;
44646;SDS011;56315;-33.902;151.160;2023-03-31T11:23:38;2.65;;;1.30;;
44646;SDS011;56315;-33.902;151.160;2023-03-31T11:31:30;1.88;;;1.42;;
44646;SDS011;56315;-33.902;151.160;2023-03-31T11:34:17;2.78;;;1.38;;
44646;SDS011;56315;-33.902;151.160;2023-03-31T11:45:33;3.28;;;2.03;;
44646;SDS011;56315;-33.902;151.160;2023-03-31T11:48:24;2.75;;;1.52;;
44646;SDS011;56315;-33.902;151.160;2023-03-31T11:51:08;5.55;;;2.00;;
44646;SDS011;56315;-33.902;151.160;2023-03-31T11:53:43;3.13;;;1.73;;
44646;SDS011;56315;-33.902;151.160;2023-03-31T11:56:12;3.25;;;1.88;;
44646;SDS011;56315;-33.902;151.160;2023-03-31T11:58:44;2.55;;;1.55;;
44646;SDS011;56315;-33.902;151.160;2023-03-31T12:06:32;4.65;;;1.80;;
44646;SDS011;56315;-33.902;151.160;2023-03-31T12:11:43;2.10;;;1.73;;
44646;SDS011;56315;-33.902;151.160;2023-03-31T12:16:50;4.23;;;1.77;;
44646;SDS011;56315;-33.902;151.160;2023-03-31T12:24:56;9.13;;;2.10;;
44646;SDS011;56315;-33.902;151.160;2023-03-31T12:33:19;2.55;;;1.65;;
44646;SDS011;56315;-33.902;151.160;2023-03-31T12:38:49;2.20;;;1.13;;
44646;SDS011;56315;-33.902;151.160;2023-03-31T12:41:43;3.38;;;1.60;;
44646;SDS011;56315;-33.902;151.160;2023-03-31T12:47:18;2.45;;;1.40;;
44646;SDS011;56315;-33.902;151.160;2023-03-31T12:52:31;2.33;;;1.27;;
44646;SDS011;56315;-33.902;151.160;2023-03-31T12:55:30;1.98;;;1.45;;
44646;SDS011;56315;-33.902;151.160;2023-03-31T13:03:47;3.00;;;1.60;;
44646;SDS011;56315;-33.902;151.160;2023-03-31T13:14:23;1.88;;;1.25;;
44646;SDS011;56315;-33.902;151.160;2023-03-31T13:16:51;2.28;;;1.38;;
44646;SDS011;56315;-33.902;151.160;2023-03-31T13:19:36;2.28;;;1.55;;
44646;SDS011;56315;-33.902;151.160;2023-03-31T13:22:05;2.67;;;1.55;;
44646;SDS011;56315;-33.902;151.160;2023-03-31T13:24:52;3.85;;;1.52;;
44646;SDS011;56315;-33.902;151.160;2023-03-31T13:27:46;1.55;;;1.27;;
44646;SDS011;56315;-33.902;151.160;2023-03-31T13:33:04;2.22;;;1.10;;
44646;SDS011;56315;-33.902;151.160;2023-03-31T13:35:37;2.42;;;1.00;;
44646;SDS011;56315;-33.902;151.160;2023-03-31T13:41:12;2.45;;;1.20;;
44646;SDS011;56315;-33.902;151.160;2023-03-31T13:44:05;1.77;;;1.38;;
44646;SDS011;56315;-33.902;151.160;2023-03-31T13:56:21;1.95;;;1.17;;
44646;SDS011;56315;-33.902;151.160;2023-03-31T14:01:44;2.22;;;1.20;;
44646;SDS011;56315;-33.902;151.160;2023-03-31T14:07:14;1.02;;;0.65;;
44646;SDS011;56315;-33.902;151.160;2023-03-31T14:09:57;2.90;;;1.02;;
44646;SDS011;56315;-33.902;151.160;2023-03-31T14:14:59;3.53;;;0.95;;
44646;SDS011;56315;-33.902;151.160;2023-03-31T14:17:37;1.35;;;0.93;;
44646;SDS011;56315;-33.902;151.160;2023-03-31T14:31:18;2.35;;;0.95;;
44646;SDS011;56315;-33.902;151.160;2023-03-31T14:36:57;2.13;;;0.90;;
44646;SDS011;56315;-33.902;151.160;2023-03-31T14:39:47;1.30;;;0.85;;
44646;SDS011;56315;-33.902;151.160;2023-03-31T14:42:19;1.00;;;0.75;;
44646;SDS011;56315;-33.902;151.160;2023-03-31T14:44:56;1.85;;;0.95;;
44646;SDS011;56315;-33.902;151.160;2023-03-31T14:47:28;2.85;;;0.90;;
44646;SDS011;56315;-33.902;151.160;2023-03-31T14:50:03;1.60;;;1.00;;
44646;SDS011;56315;-33.902;151.160;2023-03-31T14:52:39;1.42;;;0.73;;
44646;SDS011;56315;-33.902;151.160;2023-03-31T14:55:17;1.45;;;0.90;;
44646;SDS011;56315;-33.902;151.160;2023-03-31T14:57:51;2.28;;;0.82;;
44646;SDS011;56315;-33.902;151.160;2023-03-31T15:00:32;2.30;;;1.00;;
44646;SDS011;56315;-33.902;151.160;2023-03-31T15:03:01;1.90;;;0.63;;
44646;SDS011;56315;-33.902;151.160;2023-03-31T15:05:32;2.50;;;1.00;;
44646;SDS011;56315;-33.902;151.160;2023-03-31T15:08:06;1.63;;;0.95;;
44646;SDS011;56315;-33.902;151.160;2023-03-31T15:10:39;2.53;;;0.80;;
44646;SDS011;56315;-33.902;151.160;2023-03-31T15:13:11;1.45;;;0.80;;
44646;SDS011;56315;-33.902;151.160;2023-03-31T15:18:55;2.60;;;1.00;;
44646;SDS011;56315;-33.902;151.160;2023-03-31T15:21:25;2.05;;;0.95;;
44646;SDS011;56315;-33.902;151.160;2023-03-31T15:23:56;1.98;;;1.05;;
44646;SDS011;56315;-33.902;151.160;2023-03-31T15:26:28;2.63;;;1.20;;
44646;SDS011;56315;-33.902;151.160;2023-03-31T15:29:06;3.72;;;1.45;;
44646;SDS011;56315;-33.902;151.160;2023-03-31T15:31:42;2.25;;;1.10;;
44646;SDS011;56315;-33.902;151.160;2023-03-31T15:34:24;2.10;;;1.00;;
44646;SDS011;56315;-33.902;151.160;2023-03-31T15:36:58;1.20;;;0.80;;
44646;SDS011;56315;-33.902;151.160;2023-03-31T15:39:28;5.25;;;1.73;;
44646;SDS011;56315;-33.902;151.160;2023-03-31T15:41:57;2.22;;;1.10;;
44646;SDS011;56315;-33.902;151.160;2023-03-31T15:47:27;1.60;;;1.10;;
44646;SDS011;56315;-33.902;151.160;2023-03-31T15:50:16;3.55;;;1.40;;
44646;SDS011;56315;-33.902;151.160;2023-03-31T15:52:47;1.65;;;0.93;;
44646;SDS011;56315;-33.902;151.160;2023-03-31T15:55:23;2.42;;;1.20;;
44646;SDS011;56315;-33.902;151.160;2023-03-31T15:57:51;1.75;;;0.90;;
44646;SDS011;56315;-33.902;151.160;2023-03-31T16:03:15;3.60;;;1.00;;
44646;SDS011;56315;-33.902;151.160;2023-03-31T16:06:00;2.58;;;1.00;;
44646;SDS011;56315;-33.902;151.160;2023-03-31T16:08:57;2.10;;;1.20;;
44646;SDS011;56315;-33.902;151.160;2023-03-31T16:11:39;1.98;;;1.00;;
44646;SDS011;56315;-33.902;151.160;2023-03-31T16:14:20;2.13;;;1.15;;
44646;SDS011;56315;-33.902;151.160;2023-03-31T16:17:05;2.95;;;1.10;;
44646;SDS011;56315;-33.902;151.160;2023-03-31T16:19:45;1.77;;;1.00;;
44646;SDS011;56315;-33.902;151.160;2023-03-31T16:22:20;1.33;;;0.88;;
44646;SDS011;56315;-33.902;151.160;2023-03-31T16:24:49;2.75;;;1.00;;
44646;SDS011;56315;-33.902;151.160;2023-03-31T16:27:17;1.88;;;1.10;;
44646;SDS011;56315;-33.902;151.160;2023-03-31T16:29:44;1.98;;;1.20;;
44646;SDS011;56315;-33.902;151.160;2023-03-31T16:32:16;2.25;;;1.15;;
44646;SDS011;56315;-33.902;151.160;2023-03-31T16:34:52;1.20;;;1.00;;
44646;SDS011;56315;-33.902;151.160;2023-03-31T16:37:19;1.65;;;1.00;;
44646;SDS011;56315;-33.902;151.160;2023-03-31T16:39:47;1.48;;;1.00;;
44646;SDS011;56315;-33.902;151.160;2023-03-31T16:42:14;2.00;;;1.30;;
44646;SDS011;56315;-33.902;151.160;2023-03-31T16:44:41;2.08;;;1.00;;
44646;SDS011;56315;-33.902;151.160;2023-03-31T16:47:13;1.30;;;0.80;;
44646;SDS011;56315;-33.902;151.160;2023-03-31T16:49:40;2.38;;;1.02;;
44646;SDS011;56315;-33.902;151.160;2023-03-31T16:52:08;2.45;;;1.40;;
44646;SDS011;56315;-33.902;151.160;2023-03-31T16:54:36;2.17;;;1.10;;
44646;SDS011;56315;-33.902;151.160;2023-03-31T16:57:03;1.73;;;1.05;;
44646;SDS011;56315;-33.902;151.160;2023-03-31T16:59:31;2.22;;;1.15;;
44646;SDS011;56315;-33.902;151.160;2023-03-31T17:01:58;3.25;;;1.15;;
44646;SDS011;56315;-33.902;151.160;2023-03-31T17:04:25;3.17;;;0.90;;
44646;SDS011;56315;-33.902;151.160;2023-03-31T17:06:53;3.38;;;1.30;;
44646;SDS011;56315;-33.902;151.160;2023-03-31T17:09:20;1.98;;;1.05;;
44646;SDS011;56315;-33.902;151.160;2023-03-31T17:11:47;2.85;;;1.20;;
44646;SDS011;56315;-33.902;151.160;2023-03-31T17:14:15;2.72;;;1.25;;
44646;SDS011;56315;-33.902;151.160;2023-03-31T17:16:42;4.40;;;1.38;;
44646;SDS011;56315;-33.902;151.160;2023-03-31T17:19:09;2.50;;;1.48;;
44646;SDS011;56315;-33.902;151.160;2023-03-31T17:21:36;1.88;;;1.27;;
44646;SDS011;56315;-33.902;151.160;2023-03-31T17:24:06;2.90;;;1.23;;
44646;SDS011;56315;-33.902;151.160;2023-03-31T17:26:34;2.10;;;1.17;;
44646;SDS011;56315;-33.902;151.160;2023-03-31T17:29:02;3.13;;;1.55;;
44646;SDS011;56315;-33.902;151.160;2023-03-31T17:31:29;3.30;;;1.70;;
44646;SDS011;56315;-33.902;151.160;2023-03-31T17:33:56;2.13;;;1.10;;
44646;SDS011;56315;-33.902;151.160;2023-03-31T17:36:24;3.15;;;1.33;;
44646;SDS011;56315;-33.902;151.160;2023-03-31T17:38:51;1.58;;;1.10;;
44646;SDS011;56315;-33.902;151.160;2023-03-31T17:41:19;1.70;;;1.10;;
44646;SDS011;56315;-33.902;151.160;2023-03-31T17:43:47;2.00;;;1.40;;
44646;SDS011;56315;-33.902;151.160;2023-03-31T17:46:14;3.05;;;1.40;;
44646;SDS011;56315;-33.902;151.160;2023-03-31T17:48:43;2.72;;;1.50;;
44646;SDS011;56315;-33.902;151.160;2023-03-31T17:51:11;2.10;;;1.20;;
44646;SDS011;56315;-33.902;151.160;2023-03-31T17:53:41;3.03;;;1.15;;
44646;SDS011;56315;-33.902;151.160;2023-03-31T17:56:09;2.00;;;1.50;;